createdAt,value
2018-01-23T00:00:52.457Z,101560.91
2018-01-23T00:01:56.667Z,101564.28
2018-01-23T00:03:00.837Z,101566.02
2018-01-23T00:04:05.232Z,101563.88
2018-01-23T00:05:10.904Z,101568.13
2018-01-23T00:06:15.527Z,101563.88
2018-01-23T00:07:19.786Z,101565.16
2018-01-23T00:08:24.014Z,101568.14
2018-01-23T00:09:28.179Z,101565.60
2018-01-23T00:10:33.116Z,101571.12
2018-01-23T00:11:37.786Z,101570.28
2018-01-23T00:12:43.106Z,101563.89
2018-01-23T00:13:48.276Z,101567.70
2018-01-23T00:14:52.640Z,101564.32
2018-01-23T00:15:56.838Z,101570.25
2018-01-23T00:17:01.088Z,101571.55
2018-01-23T00:18:05.304Z,101568.98
2018-01-23T00:19:09.693Z,101570.66
2018-01-23T00:20:14.467Z,101566.84
2018-01-23T00:21:18.820Z,101568.13
2018-01-23T00:22:23.097Z,101572.36
2018-01-23T00:23:27.295Z,101576.18
2018-01-23T00:24:32.337Z,101571.95
2018-01-23T00:25:37.353Z,101575.77
2018-01-23T00:26:42.160Z,101574.10
2018-01-23T00:27:47.578Z,101577.50
2018-01-23T00:28:51.940Z,101580.48
2018-01-23T00:29:56.961Z,101583.45
2018-01-23T00:31:01.136Z,101579.22
2018-01-23T00:32:05.340Z,101579.64
2018-01-23T00:33:10.273Z,101584.71
2018-01-23T00:34:14.848Z,101581.33
2018-01-23T00:35:20.101Z,101582.60
2018-01-23T00:36:24.305Z,101577.91
2018-01-23T00:37:29.249Z,101581.33
2018-01-23T00:38:33.492Z,101585.55
2018-01-23T00:39:37.714Z,101577.94
2018-01-23T00:40:42.376Z,101577.49
2018-01-23T00:41:48.769Z,101574.08
2018-01-23T00:42:52.985Z,101574.94
2018-01-23T00:43:57.220Z,101572.39
2018-01-23T00:45:01.406Z,101577.06
2018-01-23T00:46:05.632Z,101576.64
2018-01-23T00:47:10.534Z,101580.04
2018-01-23T00:48:14.907Z,101580.86
2018-01-23T00:49:19.523Z,101587.25
2018-01-23T00:50:23.776Z,101580.44
2018-01-23T00:51:27.972Z,101580.84
2018-01-23T00:52:32.134Z,101584.27
2018-01-23T00:53:36.312Z,101587.25
2018-01-23T00:54:40.797Z,101587.66
2018-01-23T00:55:45.718Z,101588.52
2018-01-23T00:56:50.871Z,101588.92
2018-01-23T00:57:55.089Z,101587.62
2018-01-23T00:58:59.295Z,101587.20
2018-01-23T01:00:03.611Z,101588.92
2018-01-23T01:01:07.857Z,101595.31
2018-01-23T01:02:12.827Z,101594.91
2018-01-23T01:03:17.639Z,101591.91
2018-01-23T01:04:22.166Z,101596.56
2018-01-23T01:05:27.189Z,101599.98
2018-01-23T01:06:31.387Z,101593.56
2018-01-23T01:07:35.596Z,101596.16
2018-01-23T01:08:40.249Z,101602.52
2018-01-23T01:09:45.841Z,101597.38
2018-01-23T01:10:50.918Z,101600.38
2018-01-23T01:11:55.897Z,101601.66
2018-01-23T01:13:00.066Z,101598.70
2018-01-23T01:14:05.181Z,101595.30
2018-01-23T01:15:10.950Z,101596.59
2018-01-23T01:16:15.542Z,101597.39
2018-01-23T01:17:20.008Z,101595.25
2018-01-23T01:18:24.249Z,101597.81
2018-01-23T01:19:28.443Z,101595.67
2018-01-23T01:20:32.700Z,101596.13
2018-01-23T01:21:37.671Z,101595.25
2018-01-23T01:22:43.711Z,101600.35
2018-01-23T01:23:47.933Z,101603.77
2018-01-23T01:24:52.248Z,101597.81
2018-01-23T01:25:56.516Z,101597.00
2018-01-23T01:27:01.486Z,101599.95
2018-01-23T01:28:05.692Z,101600.78
2018-01-23T01:29:10.138Z,101599.50
2018-01-23T01:30:14.718Z,101600.38
2018-01-23T01:31:18.965Z,101601.68
2018-01-23T01:32:23.188Z,101602.13
2018-01-23T01:33:28.866Z,101606.78
2018-01-23T01:34:33.884Z,101600.34
2018-01-23T01:35:39.534Z,101602.06
2018-01-23T01:36:44.260Z,101609.70
2018-01-23T01:37:49.816Z,101605.86
2018-01-23T01:38:54.349Z,101602.45
2018-01-23T01:39:58.603Z,101608.78
2018-01-23T01:41:02.817Z,101606.25
2018-01-23T01:42:07.021Z,101611.33
2018-01-23T01:43:11.432Z,101609.22
2018-01-23T01:44:15.905Z,101608.80
2018-01-23T01:45:20.201Z,101611.33
2018-01-23T01:46:25.144Z,101615.56
2018-01-23T01:47:29.378Z,101614.29
2018-01-23T01:48:51.344Z,101611.31
2018-01-23T01:49:55.515Z,101618.98
2018-01-23T01:51:00.024Z,101616.00
2018-01-23T01:52:04.196Z,101623.20
2018-01-23T01:53:09.666Z,101621.91
2018-01-23T01:54:14.137Z,101629.16
2018-01-23T01:55:18.852Z,101628.73
2018-01-23T01:56:23.148Z,101627.89
2018-01-23T01:57:27.357Z,101630.00
2018-01-23T01:58:31.532Z,101626.20
2018-01-23T01:59:35.820Z,101633.02
2018-01-23T02:00:41.400Z,101628.77
2018-01-23T02:01:45.906Z,101636.40
2018-01-23T02:02:50.218Z,101632.59
2018-01-23T02:03:54.440Z,101640.20
2018-01-23T02:04:58.612Z,101632.99
2018-01-23T02:06:02.846Z,101635.55
2018-01-23T02:07:07.185Z,101636.82
2018-01-23T02:08:11.644Z,101638.09
2018-01-23T02:09:16.089Z,101633.03
2018-01-23T02:10:20.649Z,101632.16
2018-01-23T02:11:24.817Z,101634.30
2018-01-23T02:12:29.839Z,101633.01
2018-01-23T02:13:34.770Z,101640.64
2018-01-23T02:14:39.300Z,101639.39
2018-01-23T02:15:45.745Z,101641.92
2018-01-23T02:16:50.764Z,101643.22
2018-01-23T02:17:55.827Z,101642.81
2018-01-23T02:19:00.028Z,101636.45
2018-01-23T02:20:04.258Z,101638.98
2018-01-23T02:21:08.583Z,101636.86
2018-01-23T02:22:13.202Z,101638.57
2018-01-23T02:23:18.090Z,101637.30
2018-01-23T02:24:23.305Z,101644.06
2018-01-23T02:25:27.527Z,101644.10
2018-01-23T02:26:32.548Z,101644.52
2018-01-23T02:27:36.747Z,101650.91
2018-01-23T02:28:42.254Z,101651.34
2018-01-23T02:29:47.557Z,101645.36
2018-01-23T02:30:51.864Z,101645.39
2018-01-23T02:31:56.882Z,101649.20
2018-01-23T02:33:01.811Z,101648.32
2018-01-23T02:34:06.433Z,101650.86
2018-01-23T02:35:11.521Z,101656.36
2018-01-23T02:36:16.287Z,101652.95
2018-01-23T02:37:20.732Z,101651.66
2018-01-23T02:38:24.953Z,101651.67
2018-01-23T02:39:29.255Z,101658.05
2018-01-23T02:40:33.437Z,101658.08
2018-01-23T02:41:38.628Z,101652.55
2018-01-23T02:42:43.843Z,101655.09
2018-01-23T02:43:48.541Z,101657.63
2018-01-23T02:44:53.511Z,101659.30
2018-01-23T02:45:57.719Z,101666.93
2018-01-23T02:47:01.924Z,101667.77
2018-01-23T02:48:06.137Z,101666.95
2018-01-23T02:49:10.615Z,101661.87
2018-01-23T02:50:15.328Z,101660.57
2018-01-23T02:51:20.168Z,101670.34
2018-01-23T02:52:24.385Z,101672.05
2018-01-23T02:53:28.591Z,101671.19
2018-01-23T02:54:33.563Z,101671.59
2018-01-23T02:55:37.841Z,101671.60
2018-01-23T02:56:42.230Z,101680.08
2018-01-23T02:57:47.043Z,101680.94
2018-01-23T02:58:52.073Z,101680.08
2018-01-23T02:59:56.313Z,101677.53
2018-01-23T03:01:00.525Z,101678.41
2018-01-23T03:02:04.743Z,101684.33
2018-01-23T03:03:09.641Z,101680.53
2018-01-23T03:04:14.698Z,101680.50
2018-01-23T03:05:19.003Z,101680.09
2018-01-23T03:06:23.257Z,101682.19
2018-01-23T03:07:27.509Z,101692.38
2018-01-23T03:08:31.743Z,101688.58
2018-01-23T03:09:35.953Z,101682.62
2018-01-23T03:10:40.735Z,101684.35
2018-01-23T03:11:45.467Z,101692.41
2018-01-23T03:12:50.555Z,101694.09
2018-01-23T03:13:54.760Z,101693.66
2018-01-23T03:14:58.926Z,101696.64
2018-01-23T03:16:03.500Z,101702.56
2018-01-23T03:17:07.686Z,101698.78
2018-01-23T03:18:12.129Z,101699.59
2018-01-23T03:19:17.404Z,101697.91
2018-01-23T03:20:21.911Z,101705.13
2018-01-23T03:21:26.153Z,101705.97
2018-01-23T03:22:31.111Z,101708.08
2018-01-23T03:23:35.318Z,101708.09
2018-01-23T03:24:39.802Z,101705.95
2018-01-23T03:25:44.261Z,101702.53
2018-01-23T03:26:48.612Z,101707.23
2018-01-23T03:27:53.685Z,101709.31
2018-01-23T03:28:57.865Z,101711.84
2018-01-23T03:30:02.035Z,101716.52
2018-01-23T03:31:06.253Z,101716.06
2018-01-23T03:32:12.168Z,101715.23
2018-01-23T03:33:16.501Z,101717.77
2018-01-23T03:34:20.880Z,101721.19
2018-01-23T03:35:25.100Z,101723.31
2018-01-23T03:36:29.380Z,101727.53
2018-01-23T03:37:33.592Z,101723.28
2018-01-23T03:38:37.843Z,101720.30
2018-01-23T03:39:42.323Z,101721.58
2018-01-23T03:40:46.967Z,101724.13
2018-01-23T03:41:51.563Z,101710.98
2018-01-23T03:42:55.745Z,101713.94
2018-01-23T03:44:00.017Z,101716.06
2018-01-23T03:45:04.237Z,101717.77
2018-01-23T03:46:09.101Z,101714.80
2018-01-23T03:47:14.222Z,101717.77
2018-01-23T03:48:18.462Z,101721.99
2018-01-23T03:49:23.519Z,101726.23
2018-01-23T03:50:27.697Z,101727.06
2018-01-23T03:51:31.907Z,101731.33
2018-01-23T03:52:37.675Z,101725.81
2018-01-23T03:53:43.651Z,101727.09
2018-01-23T03:54:48.135Z,101725.80
2018-01-23T03:55:52.436Z,101730.48
2018-01-23T03:56:56.645Z,101727.95
2018-01-23T03:58:00.855Z,101734.70
2018-01-23T03:59:05.081Z,101735.58
2018-01-23T04:00:10.197Z,101734.30
2018-01-23T04:01:14.670Z,101739.38
2018-01-23T04:02:18.951Z,101743.62
2018-01-23T04:03:24.021Z,101738.52
2018-01-23T04:04:28.228Z,101744.48
2018-01-23T04:05:32.513Z,101744.05
2018-01-23T04:06:36.720Z,101744.91
2018-01-23T04:07:41.072Z,101747.88
2018-01-23T04:08:45.539Z,101744.02
2018-01-23T04:09:50.644Z,101746.16
2018-01-23T04:10:54.892Z,101745.75
2018-01-23T04:11:59.868Z,101754.22
2018-01-23T04:13:04.073Z,101755.52
2018-01-23T04:14:09.344Z,101749.97
2018-01-23T04:15:14.440Z,101752.08
2018-01-23T04:16:19.085Z,101758.02
2018-01-23T04:17:24.095Z,101759.30
2018-01-23T04:18:28.268Z,101758.03
2018-01-23T04:19:32.454Z,101759.30
2018-01-23T04:20:36.636Z,101754.63
2018-01-23T04:21:42.049Z,101759.28
2018-01-23T04:22:46.409Z,101758.44
2018-01-23T04:23:50.720Z,101762.69
2018-01-23T04:24:55.684Z,101762.67
2018-01-23T04:26:01.584Z,101759.30
2018-01-23T04:27:05.852Z,101766.92
2018-01-23T04:28:10.616Z,101766.54
2018-01-23T04:29:15.058Z,101763.97
2018-01-23T04:30:20.390Z,101766.92
2018-01-23T04:31:25.384Z,101769.03
2018-01-23T04:32:30.260Z,101766.04
2018-01-23T04:33:35.236Z,101774.11
2018-01-23T04:34:39.604Z,101775.39
2018-01-23T04:35:44.850Z,101773.28
2018-01-23T04:36:50.046Z,101774.98
2018-01-23T04:37:54.247Z,101770.73
2018-01-23T04:38:58.515Z,101772.41
2018-01-23T04:40:02.826Z,101774.56
2018-01-23T04:41:06.995Z,101770.75
2018-01-23T04:42:13.281Z,101775.84
2018-01-23T04:43:17.568Z,101770.73
2018-01-23T04:44:21.812Z,101768.17
2018-01-23T04:45:26.751Z,101773.27
2018-01-23T04:46:30.980Z,101773.69
2018-01-23T04:47:35.183Z,101774.09
2018-01-23T04:48:41.347Z,101779.59
2018-01-23T04:49:45.888Z,101777.48
2018-01-23T04:50:50.558Z,101776.64
2018-01-23T04:51:54.768Z,101781.72
2018-01-23T04:52:59.776Z,101782.59
2018-01-23T04:54:04.718Z,101787.70
2018-01-23T04:55:09.968Z,101791.91
2018-01-23T04:56:15.311Z,101788.08
2018-01-23T04:57:20.027Z,101790.21
2018-01-23T04:58:24.762Z,101794.84
2018-01-23T04:59:29.673Z,101789.34
2018-01-23T05:00:34.793Z,101791.03
2018-01-23T05:01:40.790Z,101798.66
2018-01-23T05:02:45.138Z,101796.49
2018-01-23T05:03:49.467Z,101799.45
2018-01-23T05:04:54.485Z,101790.93
2018-01-23T05:05:58.664Z,101790.52
2018-01-23T05:07:02.867Z,101793.86
2018-01-23T05:08:07.048Z,101786.20
2018-01-23T05:09:12.236Z,101794.25
2018-01-23T05:10:16.543Z,101790.34
2018-01-23T05:11:20.955Z,101789.97
2018-01-23T05:12:25.327Z,101794.61
2018-01-23T05:13:29.504Z,101790.38
2018-01-23T05:14:33.763Z,101793.78
2018-01-23T05:15:38.861Z,101797.98
2018-01-23T05:16:43.821Z,101790.75
2018-01-23T05:17:48.209Z,101794.98
2018-01-23T05:18:53.356Z,101800.06
2018-01-23T05:19:57.542Z,101798.38
2018-01-23T05:21:02.517Z,101800.11
2018-01-23T05:22:07.632Z,101804.72
2018-01-23T05:23:12.863Z,101797.94
2018-01-23T05:24:17.687Z,101801.34
2018-01-23T05:25:21.916Z,101801.31
2018-01-23T05:26:26.149Z,101800.48
2018-01-23T05:27:30.357Z,101800.49
2018-01-23T05:28:34.565Z,101797.09
2018-01-23T05:29:39.270Z,101804.73
2018-01-23T05:30:44.488Z,101798.38
2018-01-23T05:31:48.800Z,101803.08
2018-01-23T05:32:53.097Z,101796.29
2018-01-23T05:33:58.027Z,101801.42
2018-01-23T05:35:02.991Z,101801.40
2018-01-23T05:36:07.259Z,101800.15
2018-01-23T05:37:12.974Z,101802.27
2018-01-23T05:38:17.263Z,101804.81
2018-01-23T05:39:21.756Z,101804.84
2018-01-23T05:40:25.967Z,101802.28
2018-01-23T05:41:30.644Z,101807.35
2018-01-23T05:42:34.843Z,101807.77
2018-01-23T05:43:39.230Z,101804.81
2018-01-23T05:44:44.190Z,101815.00
2018-01-23T05:45:48.509Z,101815.01
2018-01-23T05:46:52.800Z,101818.80
2018-01-23T05:47:57.061Z,101816.71
2018-01-23T05:49:02.024Z,101811.22
2018-01-23T05:50:06.241Z,101810.36
2018-01-23T05:51:10.756Z,101812.91
2018-01-23T05:52:15.537Z,101809.10
2018-01-23T05:53:20.593Z,101807.80
2018-01-23T05:54:24.832Z,101810.38
2018-01-23T05:55:29.064Z,101807.40
2018-01-23T05:56:33.278Z,101812.06
2018-01-23T05:57:37.487Z,101809.13
2018-01-23T05:58:42.028Z,101813.79
2018-01-23T05:59:46.578Z,101809.13
2018-01-23T06:00:51.054Z,101809.19
2018-01-23T06:01:56.008Z,101816.81
2018-01-23T06:03:00.974Z,101808.75
2018-01-23T06:04:05.556Z,101811.72
2018-01-23T06:05:11.209Z,101810.88
2018-01-23T06:06:16.127Z,101812.57
2018-01-23T06:07:20.783Z,101812.55
2018-01-23T06:08:25.009Z,101812.97
2018-01-23T06:09:29.267Z,101815.92
2018-01-23T06:10:34.233Z,101809.59
2018-01-23T06:11:38.462Z,101812.15
2018-01-23T06:12:43.148Z,101813.44
2018-01-23T06:13:47.381Z,101813.43
2018-01-23T06:14:51.749Z,101813.45
2018-01-23T06:15:56.688Z,101819.80
2018-01-23T06:17:01.668Z,101815.51
2018-01-23T06:18:05.905Z,101814.22
2018-01-23T06:19:10.540Z,101818.91
2018-01-23T06:20:15.617Z,101816.36
2018-01-23T06:21:20.510Z,101818.05
2018-01-23T06:22:25.544Z,101822.70
2018-01-23T06:23:29.786Z,101823.98
2018-01-23T06:24:33.996Z,101832.86
2018-01-23T06:25:38.295Z,101818.05
2018-01-23T06:26:42.912Z,101823.56
2018-01-23T06:27:47.360Z,101828.23
2018-01-23T06:28:51.983Z,101825.29
2018-01-23T06:29:56.156Z,101829.09
2018-01-23T06:31:00.342Z,101823.58
2018-01-23T06:32:05.313Z,101821.45
2018-01-23T06:33:09.606Z,101823.53
2018-01-23T06:34:14.557Z,101827.37
2018-01-23T06:35:18.820Z,101827.81
2018-01-23T06:36:24.097Z,101827.38
2018-01-23T06:37:28.333Z,101829.50
2018-01-23T06:38:32.521Z,101830.77
2018-01-23T06:39:36.725Z,101830.77
2018-01-23T06:40:41.405Z,101838.39
2018-01-23T06:41:45.821Z,101842.63
2018-01-23T06:42:50.762Z,101843.87
2018-01-23T06:43:55.001Z,101848.56
2018-01-23T06:44:59.221Z,101846.89
2018-01-23T06:46:03.427Z,101847.70
2018-01-23T06:47:07.622Z,101851.13
2018-01-23T06:48:12.440Z,101838.39
2018-01-23T06:49:17.227Z,101841.42
2018-01-23T06:50:22.533Z,101846.05
2018-01-23T06:51:26.790Z,101838.88
2018-01-23T06:52:31.845Z,101845.25
2018-01-23T06:53:36.087Z,101852.49
2018-01-23T06:54:40.620Z,101838.91
2018-01-23T06:55:45.682Z,101845.67
2018-01-23T06:56:50.750Z,101840.17
2018-01-23T06:57:55.186Z,101842.72
2018-01-23T06:58:59.408Z,101848.63
2018-01-23T07:00:03.643Z,101847.36
2018-01-23T07:01:08.791Z,101838.46
2018-01-23T07:02:13.376Z,101841.05
2018-01-23T07:03:17.735Z,101846.99
2018-01-23T07:04:22.014Z,101843.60
2018-01-23T07:05:26.228Z,101848.67
2018-01-23T07:06:30.457Z,101852.09
2018-01-23T07:07:35.460Z,101858.86
2018-01-23T07:08:41.350Z,101861.43
2018-01-23T07:09:45.839Z,101860.60
2018-01-23T07:10:50.701Z,101857.61
2018-01-23T07:11:54.914Z,101859.73
2018-01-23T07:12:59.550Z,101855.54
2018-01-23T07:14:03.727Z,101859.78
2018-01-23T07:15:08.877Z,101853.43
2018-01-23T07:16:14.099Z,101857.23
2018-01-23T07:17:18.800Z,101855.55
2018-01-23T07:18:23.196Z,101864.46
2018-01-23T07:19:27.417Z,101861.94
2018-01-23T07:20:31.601Z,101864.08
2018-01-23T07:21:35.811Z,101865.75
2018-01-23T07:22:40.276Z,101871.69
2018-01-23T07:23:44.917Z,101866.21
2018-01-23T07:24:49.167Z,101871.70
2018-01-23T07:25:53.536Z,101870.42
2018-01-23T07:26:57.712Z,101871.70
2018-01-23T07:28:01.921Z,101875.98
2018-01-23T07:29:06.525Z,101870.42
2018-01-23T07:30:10.969Z,101870.01
2018-01-23T07:31:16.270Z,101877.22
2018-01-23T07:32:21.375Z,101876.41
2018-01-23T07:33:25.564Z,101885.75
2018-01-23T07:34:30.546Z,101881.06
2018-01-23T07:35:34.748Z,101875.53
2018-01-23T07:36:39.240Z,101881.48
2018-01-23T07:37:44.385Z,101879.83
2018-01-23T07:38:48.654Z,101885.29
2018-01-23T07:39:53.216Z,101877.27
2018-01-23T07:40:57.485Z,101876.44
2018-01-23T07:42:02.432Z,101886.64
2018-01-23T07:43:06.650Z,101888.33
2018-01-23T07:44:12.201Z,101887.03
2018-01-23T07:45:17.389Z,101890.84
2018-01-23T07:46:22.555Z,101895.95
2018-01-23T07:47:26.760Z,101898.91
2018-01-23T07:48:30.980Z,101895.95
2018-01-23T07:49:35.236Z,101901.03
2018-01-23T07:50:40.439Z,101898.53
2018-01-23T07:51:45.123Z,101905.28
2018-01-23T07:52:49.550Z,101905.30
2018-01-23T07:53:53.731Z,101898.93
2018-01-23T07:54:57.937Z,101904.02
2018-01-23T07:56:03.005Z,101904.45
2018-01-23T07:57:07.183Z,101905.73
2018-01-23T07:58:12.886Z,101905.30
2018-01-23T07:59:17.191Z,101898.53
2018-01-23T08:00:21.663Z,101907.90
2018-01-23T08:01:26.696Z,101904.49
2018-01-23T08:02:31.697Z,101904.49
2018-01-23T08:03:35.911Z,101898.13
2018-01-23T08:04:40.988Z,101901.11
2018-01-23T08:05:45.587Z,101905.35
2018-01-23T08:06:50.580Z,101904.93
2018-01-23T08:07:54.801Z,101904.09
2018-01-23T08:08:59.033Z,101896.47
2018-01-23T08:10:03.292Z,101900.70
2018-01-23T08:11:07.525Z,101904.09
2018-01-23T08:12:13.127Z,101901.56
2018-01-23T08:13:17.630Z,101898.22
2018-01-23T08:14:22.605Z,101901.62
2018-01-23T08:15:26.784Z,101902.48
2018-01-23T08:16:30.960Z,101900.84
2018-01-23T08:17:35.163Z,101901.23
2018-01-23T08:18:39.731Z,101908.86
2018-01-23T08:19:44.184Z,101899.52
2018-01-23T08:20:48.953Z,101908.02
2018-01-23T08:21:53.189Z,101908.03
2018-01-23T08:22:57.386Z,101910.14
2018-01-23T08:24:01.627Z,101909.33
2018-01-23T08:25:05.853Z,101906.77
2018-01-23T08:26:10.726Z,101913.57
2018-01-23T08:27:15.197Z,101908.03
2018-01-23T08:28:19.491Z,101912.31
2018-01-23T08:29:24.076Z,101912.73
2018-01-23T08:30:28.287Z,101910.66
2018-01-23T08:31:32.471Z,101911.05
2018-01-23T08:32:36.668Z,101912.34
2018-01-23T08:33:41.790Z,101908.51
2018-01-23T08:34:46.096Z,101905.58
2018-01-23T08:35:50.368Z,101916.62
2018-01-23T08:36:54.732Z,101914.48
2018-01-23T08:37:58.917Z,101912.34
2018-01-23T08:39:03.161Z,101913.69
2018-01-23T08:40:07.433Z,101912.44
2018-01-23T08:41:11.807Z,101912.44
2018-01-23T08:42:16.739Z,101914.58
2018-01-23T08:43:21.974Z,101919.27
2018-01-23T08:44:26.953Z,101923.11
2018-01-23T08:45:31.132Z,101916.73
2018-01-23T08:46:35.323Z,101919.73
2018-01-23T08:47:40.573Z,101914.64
2018-01-23T08:48:45.629Z,101915.52
2018-01-23T08:49:49.869Z,101921.05
2018-01-23T08:50:54.071Z,101915.12
2018-01-23T08:51:58.272Z,101913.41
2018-01-23T08:53:02.439Z,101921.02
2018-01-23T08:54:07.389Z,101908.72
2018-01-23T08:55:13.536Z,101910.46
2018-01-23T08:56:18.173Z,101908.77
2018-01-23T08:57:22.876Z,101908.34
2018-01-23T08:58:27.060Z,101910.05
2018-01-23T08:59:31.232Z,101902.84
2018-01-23T09:00:35.465Z,101907.52
2018-01-23T09:01:39.865Z,101910.48
2018-01-23T09:02:45.328Z,101909.64
2018-01-23T09:03:50.352Z,101904.17
2018-01-23T09:04:54.568Z,101901.59
2018-01-23T09:05:58.736Z,101904.59
2018-01-23T09:07:02.989Z,101906.28
2018-01-23T09:08:07.222Z,101896.09
2018-01-23T09:09:12.657Z,101897.78
2018-01-23T09:10:17.390Z,101900.77
2018-01-23T09:11:21.685Z,101897.80
2018-01-23T09:12:25.895Z,101895.72
2018-01-23T09:13:30.897Z,101895.72
2018-01-23T09:14:35.161Z,101893.61
2018-01-23T09:15:39.895Z,101893.63
2018-01-23T09:16:44.156Z,101891.53
2018-01-23T09:17:48.820Z,101889.84
2018-01-23T09:18:53.059Z,101891.13
2018-01-23T09:19:57.320Z,101892.38
2018-01-23T09:21:02.265Z,101890.70
2018-01-23T09:22:07.237Z,101891.53
2018-01-23T09:23:12.258Z,101889.88
2018-01-23T09:24:17.155Z,101893.28
2018-01-23T09:25:21.541Z,101891.59
2018-01-23T09:26:25.736Z,101895.83
2018-01-23T09:27:29.912Z,101894.15
2018-01-23T09:28:34.089Z,101895.85
2018-01-23T09:29:39.094Z,101895.41
2018-01-23T09:30:44.047Z,101896.68
2018-01-23T09:31:49.295Z,101903.06
2018-01-23T09:32:53.501Z,101900.54
2018-01-23T09:33:57.718Z,101901.39
2018-01-23T09:35:01.928Z,101900.53
2018-01-23T09:36:06.140Z,101903.08
2018-01-23T09:37:10.555Z,101899.70
2018-01-23T09:38:15.713Z,101904.44
2018-01-23T09:39:20.595Z,101908.69
2018-01-23T09:40:25.570Z,101911.28
2018-01-23T09:41:30.216Z,101909.11
2018-01-23T09:42:34.396Z,101908.68
2018-01-23T09:43:39.796Z,101908.26
2018-01-23T09:44:44.291Z,101909.97
2018-01-23T09:45:49.393Z,101906.16
2018-01-23T09:46:53.648Z,101909.59
2018-01-23T09:47:58.627Z,101906.20
2018-01-23T09:49:02.872Z,101911.73
2018-01-23T09:50:07.080Z,101912.59
2018-01-23T09:51:12.462Z,101911.73
2018-01-23T09:52:16.778Z,101914.73
2018-01-23T09:53:21.069Z,101912.61
2018-01-23T09:54:26.008Z,101908.77
2018-01-23T09:55:30.269Z,101907.50
2018-01-23T09:56:34.438Z,101908.81
2018-01-23T09:57:38.705Z,101907.55
2018-01-23T09:58:44.157Z,101909.69
2018-01-23T09:59:48.684Z,101911.41
2018-01-23T10:00:53.689Z,101910.14
2018-01-23T10:01:57.888Z,101908.44
2018-01-23T10:03:02.059Z,101913.55
2018-01-23T10:04:06.340Z,101916.11
2018-01-23T10:05:11.043Z,101917.39
2018-01-23T10:06:15.332Z,101913.21
2018-01-23T10:07:20.396Z,101916.11
2018-01-23T10:08:24.648Z,101913.97
2018-01-23T10:09:28.905Z,101918.23
2018-01-23T10:10:33.079Z,101915.27
2018-01-23T10:11:37.259Z,101913.56
2018-01-23T10:12:42.675Z,101912.28
2018-01-23T10:13:47.673Z,101913.12
2018-01-23T10:14:51.909Z,101906.73
2018-01-23T10:15:56.164Z,101908.45
2018-01-23T10:17:00.348Z,101912.29
2018-01-23T10:18:04.552Z,101908.89
2018-01-23T10:19:09.181Z,101908.45
2018-01-23T10:20:13.609Z,101911.43
2018-01-23T10:21:17.932Z,101907.67
2018-01-23T10:22:22.196Z,101903.78
2018-01-23T10:23:26.401Z,101910.14
2018-01-23T10:24:30.616Z,101906.75
2018-01-23T10:25:34.844Z,101907.17
2018-01-23T10:26:39.065Z,101907.19
2018-01-23T10:27:44.060Z,101907.19
2018-01-23T10:28:48.277Z,101908.52
2018-01-23T10:29:52.554Z,101908.55
2018-01-23T10:30:56.786Z,101909.83
2018-01-23T10:32:01.023Z,101908.97
2018-01-23T10:33:05.377Z,101909.83
2018-01-23T10:34:09.637Z,101917.90
2018-01-23T10:35:13.882Z,101912.38
2018-01-23T10:36:19.034Z,101907.28
2018-01-23T10:37:23.245Z,101909.41
2018-01-23T10:38:27.440Z,101909.83
2018-01-23T10:39:32.469Z,101908.13
2018-01-23T10:40:37.415Z,101904.74
2018-01-23T10:41:42.978Z,101902.20
2018-01-23T10:42:47.356Z,101902.61
2018-01-23T10:43:51.625Z,101904.30
2018-01-23T10:44:55.853Z,101902.19
2018-01-23T10:46:00.034Z,101896.25
2018-01-23T10:47:04.647Z,101894.98
2018-01-23T10:48:09.513Z,101901.78
2018-01-23T10:49:15.203Z,101895.80
2018-01-23T10:50:19.706Z,101890.67
2018-01-23T10:51:23.941Z,101898.33
2018-01-23T10:52:28.461Z,101893.22
2018-01-23T10:53:33.176Z,101894.95
2018-01-23T10:54:37.355Z,101894.09
2018-01-23T10:55:42.696Z,101891.98
2018-01-23T10:56:47.121Z,101896.23
2018-01-23T10:57:51.434Z,101898.77
2018-01-23T10:58:55.833Z,101889.42
2018-01-23T11:00:00.788Z,101887.70
2018-01-23T11:01:05.853Z,101888.98
2018-01-23T11:02:10.617Z,101891.13
2018-01-23T11:03:15.719Z,101897.10
2018-01-23T11:04:21.288Z,101895.39
2018-01-23T11:05:25.492Z,101891.58
2018-01-23T11:06:29.659Z,101891.59
2018-01-23T11:07:33.865Z,101886.48
2018-01-23T11:08:38.101Z,101885.22
2018-01-23T11:09:43.080Z,101887.77
2018-01-23T11:10:47.525Z,101882.25
2018-01-23T11:11:51.742Z,101888.61
2018-01-23T11:12:55.918Z,101880.09
2018-01-23T11:14:00.079Z,101882.25
2018-01-23T11:15:04.337Z,101880.52
2018-01-23T11:16:09.615Z,101874.56
2018-01-23T11:17:14.023Z,101868.20
2018-01-23T11:18:18.812Z,101871.61
2018-01-23T11:19:23.054Z,101872.45
2018-01-23T11:20:27.393Z,101856.30
2018-01-23T11:21:31.579Z,101849.47
2018-01-23T11:22:35.941Z,101855.44
2018-01-23T11:23:41.506Z,101854.19
2018-01-23T11:24:46.656Z,101851.20
2018-01-23T11:25:51.332Z,101853.33
2018-01-23T11:26:55.525Z,101855.05
2018-01-23T11:27:59.729Z,101849.51
2018-01-23T11:29:04.295Z,101848.67
2018-01-23T11:30:09.626Z,101850.80
2018-01-23T11:31:14.368Z,101849.50
2018-01-23T11:32:19.081Z,101850.35
2018-01-23T11:33:23.328Z,101851.64
2018-01-23T11:34:27.586Z,101854.20
2018-01-23T11:35:32.525Z,101851.66
2018-01-23T11:36:37.501Z,101848.25
2018-01-23T11:37:42.106Z,101851.64
2018-01-23T11:38:47.506Z,101841.44
2018-01-23T11:39:51.797Z,101839.30
2018-01-23T11:40:55.972Z,101837.19
2018-01-23T11:42:00.180Z,101831.64
2018-01-23T11:43:04.435Z,101833.76
2018-01-23T11:44:09.501Z,101830.80
2018-01-23T11:45:14.395Z,101831.21
2018-01-23T11:46:19.054Z,101834.61
2018-01-23T11:47:23.333Z,101837.59
2018-01-23T11:48:27.533Z,101835.92
2018-01-23T11:49:31.805Z,101831.66
2018-01-23T11:50:36.088Z,101831.20
2018-01-23T11:51:40.466Z,101835.92
2018-01-23T11:52:45.555Z,101835.91
2018-01-23T11:53:50.067Z,101833.77
2018-01-23T11:54:54.283Z,101832.06
2018-01-23T11:55:58.661Z,101829.09
2018-01-23T11:57:03.607Z,101829.10
2018-01-23T11:58:08.030Z,101823.55
2018-01-23T11:59:12.332Z,101828.68
2018-01-23T12:00:16.796Z,101823.55
2018-01-23T12:01:21.816Z,101818.45
2018-01-23T12:02:26.045Z,101823.98
2018-01-23T12:03:30.235Z,101812.93
2018-01-23T12:04:34.518Z,101822.72
2018-01-23T12:05:38.846Z,101821.88
2018-01-23T12:06:43.683Z,101819.72
2018-01-23T12:07:48.055Z,101822.27
2018-01-23T12:08:52.388Z,101829.11
2018-01-23T12:09:56.612Z,101824.01
2018-01-23T12:11:00.932Z,101818.88
2018-01-23T12:12:05.144Z,101822.30
2018-01-23T12:13:10.265Z,101817.16
2018-01-23T12:14:14.961Z,101813.78
2018-01-23T12:15:20.331Z,101818.03
2018-01-23T12:16:24.602Z,101811.22
2018-01-23T12:17:29.676Z,101815.46